sensor_id;sensor_type;location;lat;lon;timestamp;pressure;altitude;pressure_sealevel;temperature;humidity
40946;BME280;55635;50.264;11.918;2023-02-19T00:00:28;95748.44;;;10.15;92.24
40946;BME280;55635;50.264;11.918;2023-02-19T00:03:09;95743.63;;;9.96;92.70
40946;BME280;55635;50.264;11.918;2023-02-19T00:05:50;95754.50;;;10.01;93.02
40946;BME280;55635;50.264;11.918;2023-02-19T00:08:33;95755.66;;;9.84;93.23
40946;BME280;55635;50.264;11.918;2023-02-19T00:11:18;95751.00;;;9.86;93.33
40946;BME280;55635;50.264;11.918;2023-02-19T00:14:01;95736.81;;;9.79;93.31
40946;BME280;55635;50.264;11.918;2023-02-19T00:16:42;95719.22;;;9.63;93.32
40946;BME280;55635;50.264;11.918;2023-02-19T00:19:23;95714.38;;;9.67;93.19
40946;BME280;55635;50.264;11.918;2023-02-19T00:22:04;95706.72;;;9.95;92.67
40946;BME280;55635;50.264;11.918;2023-02-19T00:24:44;95712.44;;;9.83;93.23
40946;BME280;55635;50.264;11.918;2023-02-19T00:27:25;95707.31;;;9.82;92.79
40946;BME280;55635;50.264;11.918;2023-02-19T00:30:07;95707.91;;;9.92;92.67
40946;BME280;55635;50.264;11.918;2023-02-19T00:32:51;95724.00;;;9.91;92.60
40946;BME280;55635;50.264;11.918;2023-02-19T00:35:35;95719.22;;;9.86;93.57
40946;BME280;55635;50.264;11.918;2023-02-19T00:38:16;95722.56;;;9.80;93.38
40946;BME280;55635;50.264;11.918;2023-02-19T00:41:00;95714.56;;;9.88;93.61
40946;BME280;55635;50.264;11.918;2023-02-19T00:43:41;95703.31;;;9.86;93.05
40946;BME280;55635;50.264;11.918;2023-02-19T00:46:38;95711.84;;;9.96;93.21
40946;BME280;55635;50.264;11.918;2023-02-19T00:49:21;95714.91;;;9.85;93.65
40946;BME280;55635;50.264;11.918;2023-02-19T00:52:03;95699.81;;;9.71;94.45
40946;BME280;55635;50.264;11.918;2023-02-19T00:54:44;95713.19;;;9.92;93.85
40946;BME280;55635;50.264;11.918;2023-02-19T00:57:25;95700.44;;;9.96;93.22
40946;BME280;55635;50.264;11.918;2023-02-19T01:00:06;95696.94;;;9.95;93.30
40946;BME280;55635;50.264;11.918;2023-02-19T01:02:47;95683.78;;;9.87;93.34
40946;BME280;55635;50.264;11.918;2023-02-19T01:05:28;95681.88;;;9.96;92.70
40946;BME280;55635;50.264;11.918;2023-02-19T01:08:09;95662.50;;;9.80;93.16
40946;BME280;55635;50.264;11.918;2023-02-19T01:10:50;95673.13;;;9.72;93.26
40946;BME280;55635;50.264;11.918;2023-02-19T01:13:32;95668.97;;;9.78;93.63
40946;BME280;55635;50.264;11.918;2023-02-19T01:16:19;95651.47;;;9.92;93.48
40946;BME280;55635;50.264;11.918;2023-02-19T01:19:01;95650.28;;;9.94;93.42
40946;BME280;55635;50.264;11.918;2023-02-19T01:21:42;95642.91;;;10.04;92.55
40946;BME280;55635;50.264;11.918;2023-02-19T01:24:24;95639.66;;;9.79;92.73
40946;BME280;55635;50.264;11.918;2023-02-19T01:27:05;95633.28;;;9.89;93.44
40946;BME280;55635;50.264;11.918;2023-02-19T01:29:46;95632.09;;;9.91;92.73
40946;BME280;55635;50.264;11.918;2023-02-19T01:32:27;95611.00;;;9.98;92.84
40946;BME280;55635;50.264;11.918;2023-02-19T01:35:08;95623.72;;;10.02;92.17
40946;BME280;55635;50.264;11.918;2023-02-19T01:37:49;95616.22;;;9.91;91.99
40946;BME280;55635;50.264;11.918;2023-02-19T01:40:30;95609.38;;;9.97;92.18
40946;BME280;55635;50.264;11.918;2023-02-19T01:43:14;95606.09;;;10.09;91.76
40946;BME280;55635;50.264;11.918;2023-02-19T01:45:56;95596.97;;;10.12;90.86
40946;BME280;55635;50.264;11.918;2023-02-19T01:48:37;95599.53;;;9.91;91.79
40946;BME280;55635;50.264;11.918;2023-02-19T01:51:20;95592.47;;;9.98;91.56
40946;BME280;55635;50.264;11.918;2023-02-19T01:54:04;95586.44;;;9.89;92.54
40946;BME280;55635;50.264;11.918;2023-02-19T01:56:48;95580.53;;;9.87;92.34
40946;BME280;55635;50.264;11.918;2023-02-19T01:59:31;95585.91;;;10.08;91.79
40946;BME280;55635;50.264;11.918;2023-02-19T02:02:13;95590.88;;;10.26;90.77
40946;BME280;55635;50.264;11.918;2023-02-19T02:04:56;95582.81;;;9.90;92.10
40946;BME280;55635;50.264;11.918;2023-02-19T02:07:38;95571.03;;;9.93;91.91
40946;BME280;55635;50.264;11.918;2023-02-19T02:10:37;95568.72;;;10.04;91.39
40946;BME280;55635;50.264;11.918;2023-02-19T02:13:18;95559.88;;;10.12;90.50
40946;BME280;55635;50.264;11.918;2023-02-19T02:22:21;95544.63;;;10.28;89.67
40946;BME280;55635;50.264;11.918;2023-02-19T02:25:25;95540.94;;;10.44;88.79
40946;BME280;55635;50.264;11.918;2023-02-19T02:31:38;95534.44;;;10.47;88.70
40946;BME280;55635;50.264;11.918;2023-02-19T02:34:32;95540.16;;;10.29;89.22
40946;BME280;55635;50.264;11.918;2023-02-19T02:37:15;95533.47;;;10.04;90.00
40946;BME280;55635;50.264;11.918;2023-02-19T02:39:57;95536.50;;;10.15;90.27
40946;BME280;55635;50.264;11.918;2023-02-19T02:42:39;95538.16;;;10.16;89.99
40946;BME280;55635;50.264;11.918;2023-02-19T02:45:31;95529.09;;;10.25;89.73
40946;BME280;55635;50.264;11.918;2023-02-19T02:48:45;95536.06;;;10.26;89.35
40946;BME280;55635;50.264;11.918;2023-02-19T02:51:38;95548.28;;;10.27;89.57
40946;BME280;55635;50.264;11.918;2023-02-19T02:54:31;95529.84;;;10.19;89.22
40946;BME280;55635;50.264;11.918;2023-02-19T02:57:33;95530.22;;;10.16;89.44
40946;BME280;55635;50.264;11.918;2023-02-19T03:00:15;95533.19;;;10.28;88.91
40946;BME280;55635;50.264;11.918;2023-02-19T03:02:56;95525.44;;;10.26;89.26
40946;BME280;55635;50.264;11.918;2023-02-19T03:05:37;95527.44;;;10.39;88.80
40946;BME280;55635;50.264;11.918;2023-02-19T03:08:55;95513.31;;;10.03;90.80
40946;BME280;55635;50.264;11.918;2023-02-19T03:11:41;95524.63;;;10.11;91.14
40946;BME280;55635;50.264;11.918;2023-02-19T03:14:52;95513.72;;;10.06;91.07
40946;BME280;55635;50.264;11.918;2023-02-19T03:17:59;95495.78;;;9.87;91.60
40946;BME280;55635;50.264;11.918;2023-02-19T03:21:00;95498.31;;;9.95;91.56
40946;BME280;55635;50.264;11.918;2023-02-19T03:23:44;95496.78;;;9.86;91.95
40946;BME280;55635;50.264;11.918;2023-02-19T03:26:46;95491.22;;;9.81;92.05
40946;BME280;55635;50.264;11.918;2023-02-19T03:29:37;95493.47;;;9.99;92.48
40946;BME280;55635;50.264;11.918;2023-02-19T03:32:29;95503.00;;;9.93;91.91
40946;BME280;55635;50.264;11.918;2023-02-19T03:35:31;95505.16;;;10.04;91.67
40946;BME280;55635;50.264;11.918;2023-02-19T03:38:42;95486.44;;;9.91;92.26
40946;BME280;55635;50.264;11.918;2023-02-19T03:47:27;95492.56;;;9.92;92.93
40946;BME280;55635;50.264;11.918;2023-02-19T03:53:54;95482.25;;;9.97;91.85
40946;BME280;55635;50.264;11.918;2023-02-19T03:56:49;95476.13;;;9.96;91.86
40946;BME280;55635;50.264;11.918;2023-02-19T03:59:39;95481.81;;;9.93;91.37
40946;BME280;55635;50.264;11.918;2023-02-19T04:05:25;95463.09;;;9.80;92.20
40946;BME280;55635;50.264;11.918;2023-02-19T04:08:14;95479.72;;;9.74;92.43
40946;BME280;55635;50.264;11.918;2023-02-19T04:11:01;95474.53;;;9.66;92.26
40946;BME280;55635;50.264;11.918;2023-02-19T04:14:00;95485.44;;;9.92;91.64
40946;BME280;55635;50.264;11.918;2023-02-19T04:16:48;95483.91;;;9.83;91.55
40946;BME280;55635;50.264;11.918;2023-02-19T04:19:35;95466.75;;;9.64;91.92
40946;BME280;55635;50.264;11.918;2023-02-19T04:22:17;95492.47;;;9.85;91.71
40946;BME280;55635;50.264;11.918;2023-02-19T04:24:59;95472.78;;;9.58;91.93
40946;BME280;55635;50.264;11.918;2023-02-19T04:27:40;95490.03;;;9.69;92.08
40946;BME280;55635;50.264;11.918;2023-02-19T04:30:24;95489.03;;;9.55;92.39
40946;BME280;55635;50.264;11.918;2023-02-19T04:33:05;95504.28;;;9.68;91.28
40946;BME280;55635;50.264;11.918;2023-02-19T04:35:46;95485.53;;;9.69;90.71
40946;BME280;55635;50.264;11.918;2023-02-19T04:38:26;95506.19;;;9.89;90.20
40946;BME280;55635;50.264;11.918;2023-02-19T04:41:08;95507.56;;;9.84;90.33
40946;BME280;55635;50.264;11.918;2023-02-19T04:43:50;95509.47;;;9.91;89.81
40946;BME280;55635;50.264;11.918;2023-02-19T04:46:30;95521.88;;;10.05;89.88
40946;BME280;55635;50.264;11.918;2023-02-19T04:49:11;95517.50;;;10.12;89.10
40946;BME280;55635;50.264;11.918;2023-02-19T04:51:52;95525.00;;;10.08;89.18
40946;BME280;55635;50.264;11.918;2023-02-19T04:54:33;95514.41;;;10.08;89.24
40946;BME280;55635;50.264;11.918;2023-02-19T04:57:14;95517.66;;;10.10;89.07
40946;BME280;55635;50.264;11.918;2023-02-19T04:59:55;95522.97;;;9.96;89.28
40946;BME280;55635;50.264;11.918;2023-02-19T05:02:36;95513.59;;;9.93;89.78
40946;BME280;55635;50.264;11.918;2023-02-19T05:05:17;95523.81;;;9.96;89.57
40946;BME280;55635;50.264;11.918;2023-02-19T05:07:58;95504.91;;;9.84;90.12
40946;BME280;55635;50.264;11.918;2023-02-19T05:10:39;95511.13;;;9.77;90.86
40946;BME280;55635;50.264;11.918;2023-02-19T05:13:20;95509.22;;;10.15;89.34
40946;BME280;55635;50.264;11.918;2023-02-19T05:16:08;95504.91;;;9.99;89.87
40946;BME280;55635;50.264;11.918;2023-02-19T05:18:49;95494.56;;;10.04;89.38
40946;BME280;55635;50.264;11.918;2023-02-19T05:21:30;95505.63;;;9.93;89.91
40946;BME280;55635;50.264;11.918;2023-02-19T05:24:11;95490.00;;;9.98;89.20
40946;BME280;55635;50.264;11.918;2023-02-19T05:26:52;95509.38;;;9.99;89.42
40946;BME280;55635;50.264;11.918;2023-02-19T05:29:33;95511.56;;;9.95;89.59
40946;BME280;55635;50.264;11.918;2023-02-19T05:32:14;95511.19;;;9.98;89.58
40946;BME280;55635;50.264;11.918;2023-02-19T05:34:55;95505.25;;;10.11;89.01
40946;BME280;55635;50.264;11.918;2023-02-19T05:37:36;95498.88;;;10.05;89.25
40946;BME280;55635;50.264;11.918;2023-02-19T05:40:17;95487.56;;;9.97;89.35
40946;BME280;55635;50.264;11.918;2023-02-19T05:42:58;95478.13;;;10.09;88.89
40946;BME280;55635;50.264;11.918;2023-02-19T05:45:40;95488.44;;;10.04;89.14
40946;BME280;55635;50.264;11.918;2023-02-19T05:48:21;95497.03;;;9.91;89.45
40946;BME280;55635;50.264;11.918;2023-02-19T05:51:15;95492.19;;;10.09;89.11
40946;BME280;55635;50.264;11.918;2023-02-19T05:53:56;95501.97;;;10.23;88.23
40946;BME280;55635;50.264;11.918;2023-02-19T05:56:40;95496.03;;;10.21;87.86
40946;BME280;55635;50.264;11.918;2023-02-19T05:59:24;95481.22;;;10.12;88.25
40946;BME280;55635;50.264;11.918;2023-02-19T06:02:05;95492.56;;;10.21;88.12
40946;BME280;55635;50.264;11.918;2023-02-19T06:04:46;95496.59;;;10.02;88.84
40946;BME280;55635;50.264;11.918;2023-02-19T06:07:27;95499.13;;;10.10;88.57
40946;BME280;55635;50.264;11.918;2023-02-19T06:10:10;95502.16;;;10.07;88.41
40946;BME280;55635;50.264;11.918;2023-02-19T06:12:52;95504.34;;;10.18;88.16
40946;BME280;55635;50.264;11.918;2023-02-19T06:15:35;95503.72;;;9.87;88.98
40946;BME280;55635;50.264;11.918;2023-02-19T06:18:16;95510.94;;;9.93;88.45
40946;BME280;55635;50.264;11.918;2023-02-19T06:21:04;95510.47;;;10.04;88.25
40946;BME280;55635;50.264;11.918;2023-02-19T06:23:46;95523.25;;;10.15;88.34
40946;BME280;55635;50.264;11.918;2023-02-19T06:26:27;95508.63;;;10.19;87.48
40946;BME280;55635;50.264;11.918;2023-02-19T06:29:07;95527.38;;;10.18;87.08
40946;BME280;55635;50.264;11.918;2023-02-19T06:31:48;95526.53;;;9.88;87.41
40946;BME280;55635;50.264;11.918;2023-02-19T06:34:30;95523.97;;;10.09;86.60
40946;BME280;55635;50.264;11.918;2023-02-19T06:37:11;95528.28;;;9.96;87.33
40946;BME280;55635;50.264;11.918;2023-02-19T06:39:51;95521.50;;;10.08;86.72
40946;BME280;55635;50.264;11.918;2023-02-19T06:42:32;95521.88;;;10.05;86.93
40946;BME280;55635;50.264;11.918;2023-02-19T06:45:13;95523.72;;;9.90;88.45
40946;BME280;55635;50.264;11.918;2023-02-19T06:47:55;95526.44;;;10.11;87.11
40946;BME280;55635;50.264;11.918;2023-02-19T06:50:35;95529.59;;;10.14;86.79
40946;BME280;55635;50.264;11.918;2023-02-19T06:53:16;95521.25;;;10.17;86.83
40946;BME280;55635;50.264;11.918;2023-02-19T06:56:05;95532.03;;;9.87;87.96
40946;BME280;55635;50.264;11.918;2023-02-19T06:58:46;95526.63;;;9.80;87.76
40946;BME280;55635;50.264;11.918;2023-02-19T07:01:29;95528.56;;;10.15;87.01
40946;BME280;55635;50.264;11.918;2023-02-19T07:04:11;95543.16;;;10.26;86.97
40946;BME280;55635;50.264;11.918;2023-02-19T07:06:52;95542.72;;;9.93;87.82
40946;BME280;55635;50.264;11.918;2023-02-19T07:09:33;95545.28;;;9.87;88.27
40946;BME280;55635;50.264;11.918;2023-02-19T07:12:13;95547.56;;;9.90;88.29
40946;BME280;55635;50.264;11.918;2023-02-19T07:14:54;95549.47;;;10.10;88.20
40946;BME280;55635;50.264;11.918;2023-02-19T07:17:35;95564.25;;;10.05;88.05
40946;BME280;55635;50.264;11.918;2023-02-19T07:20:16;95558.41;;;10.09;87.77
40946;BME280;55635;50.264;11.918;2023-02-19T07:22:57;95552.94;;;10.11;87.98
40946;BME280;55635;50.264;11.918;2023-02-19T07:25:38;95569.31;;;10.14;88.11
40946;BME280;55635;50.264;11.918;2023-02-19T07:28:19;95561.16;;;10.16;88.47
40946;BME280;55635;50.264;11.918;2023-02-19T07:31:02;95563.72;;;9.95;88.69
40946;BME280;55635;50.264;11.918;2023-02-19T07:33:44;95586.53;;;9.96;88.76
40946;BME280;55635;50.264;11.918;2023-02-19T07:36:26;95589.91;;;9.90;89.41
40946;BME280;55635;50.264;11.918;2023-02-19T07:39:10;95600.69;;;9.88;89.88
40946;BME280;55635;50.264;11.918;2023-02-19T07:41:52;95617.88;;;9.92;90.01
40946;BME280;55635;50.264;11.918;2023-02-19T07:44:40;95621.97;;;9.95;90.46
40946;BME280;55635;50.264;11.918;2023-02-19T07:47:21;95623.72;;;10.02;90.13
40946;BME280;55635;50.264;11.918;2023-02-19T07:50:02;95635.00;;;10.19;90.34
40946;BME280;55635;50.264;11.918;2023-02-19T07:52:43;95632.69;;;10.30;90.06
40946;BME280;55635;50.264;11.918;2023-02-19T07:55:24;95628.66;;;10.49;89.32
40946;BME280;55635;50.264;11.918;2023-02-19T07:58:05;95629.03;;;10.46;89.48
40946;BME280;55635;50.264;11.918;2023-02-19T08:00:46;95631.97;;;10.51;89.01
40946;BME280;55635;50.264;11.918;2023-02-19T08:03:27;95637.44;;;10.50;89.04
40946;BME280;55635;50.264;11.918;2023-02-19T08:06:09;95645.94;;;10.30;89.87
40946;BME280;55635;50.264;11.918;2023-02-19T08:08:50;95654.56;;;10.32;90.21
40946;BME280;55635;50.264;11.918;2023-02-19T08:11:31;95656.84;;;10.35;90.15
40946;BME280;55635;50.264;11.918;2023-02-19T08:14:31;95642.38;;;10.53;89.86
40946;BME280;55635;50.264;11.918;2023-02-19T08:17:12;95646.31;;;10.57;88.96
40946;BME280;55635;50.264;11.918;2023-02-19T08:19:53;95652.63;;;10.56;88.85
40946;BME280;55635;50.264;11.918;2023-02-19T08:22:34;95655.84;;;10.51;88.83
40946;BME280;55635;50.264;11.918;2023-02-19T08:25:15;95648.91;;;10.35;89.36
40946;BME280;55635;50.264;11.918;2023-02-19T08:27:56;95654.38;;;10.19;89.11
40946;BME280;55635;50.264;11.918;2023-02-19T08:30:39;95664.34;;;10.09;88.99
40946;BME280;55635;50.264;11.918;2023-02-19T08:33:20;95666.94;;;10.03;88.69
40946;BME280;55635;50.264;11.918;2023-02-19T08:36:05;95684.28;;;10.05;88.90
40946;BME280;55635;50.264;11.918;2023-02-19T08:38:47;95683.44;;;9.90;88.82
40946;BME280;55635;50.264;11.918;2023-02-19T08:41:28;95692.22;;;10.05;88.61
40946;BME280;55635;50.264;11.918;2023-02-19T08:44:08;95685.75;;;10.08;87.95
40946;BME280;55635;50.264;11.918;2023-02-19T08:46:49;95702.47;;;10.08;87.93
40946;BME280;55635;50.264;11.918;2023-02-19T08:49:30;95714.63;;;10.03;88.29
40946;BME280;55635;50.264;11.918;2023-02-19T08:52:11;95709.50;;;9.78;88.84
40946;BME280;55635;50.264;11.918;2023-02-19T08:54:52;95718.50;;;9.92;88.98
40946;BME280;55635;50.264;11.918;2023-02-19T08:57:35;95700.91;;;9.76;89.64
40946;BME280;55635;50.264;11.918;2023-02-19T09:00:17;95710.03;;;9.97;89.87
40946;BME280;55635;50.264;11.918;2023-02-19T09:02:58;95714.22;;;10.28;89.29
40946;BME280;55635;50.264;11.918;2023-02-19T09:05:39;95720.50;;;10.27;89.23
40946;BME280;55635;50.264;11.918;2023-02-19T09:08:21;95734.78;;;10.26;89.00
40946;BME280;55635;50.264;11.918;2023-02-19T09:11:03;95710.91;;;9.89;89.01
40946;BME280;55635;50.264;11.918;2023-02-19T09:13:46;95729.84;;;10.01;88.18
40946;BME280;55635;50.264;11.918;2023-02-19T09:16:27;95727.31;;;10.07;88.58
40946;BME280;55635;50.264;11.918;2023-02-19T09:19:08;95723.09;;;10.13;87.50
40946;BME280;55635;50.264;11.918;2023-02-19T09:21:49;95719.81;;;9.96;87.19
40946;BME280;55635;50.264;11.918;2023-02-19T09:24:30;95734.69;;;10.20;86.12
40946;BME280;55635;50.264;11.918;2023-02-19T09:27:17;95735.78;;;10.25;85.59
40946;BME280;55635;50.264;11.918;2023-02-19T09:29:58;95738.91;;;10.44;85.17
40946;BME280;55635;50.264;11.918;2023-02-19T09:32:39;95738.56;;;10.61;84.00
40946;BME280;55635;50.264;11.918;2023-02-19T09:35:20;95747.06;;;10.86;83.93
40946;BME280;55635;50.264;11.918;2023-02-19T09:38:01;95756.13;;;10.91;83.43
40946;BME280;55635;50.264;11.918;2023-02-19T09:40:43;95757.78;;;10.78;83.00
40946;BME280;55635;50.264;11.918;2023-02-19T09:43:26;95759.13;;;10.74;83.45
40946;BME280;55635;50.264;11.918;2023-02-19T09:46:50;95771.94;;;11.14;83.31
40946;BME280;55635;50.264;11.918;2023-02-19T09:49:38;95774.94;;;11.40;82.08
40946;BME280;55635;50.264;11.918;2023-02-19T09:52:33;95768.16;;;11.23;82.36
40946;BME280;55635;50.264;11.918;2023-02-19T09:55:34;95773.03;;;11.20;80.72
40946;BME280;55635;50.264;11.918;2023-02-19T10:01:10;95779.03;;;11.28;81.48
40946;BME280;55635;50.264;11.918;2023-02-19T10:03:51;95777.84;;;11.45;80.95
40946;BME280;55635;50.264;11.918;2023-02-19T10:06:32;95789.84;;;11.27;80.36
40946;BME280;55635;50.264;11.918;2023-02-19T10:09:23;95799.69;;;11.47;80.93
40946;BME280;55635;50.264;11.918;2023-02-19T10:12:30;95790.50;;;11.14;81.44
40946;BME280;55635;50.264;11.918;2023-02-19T10:15:19;95804.03;;;11.19;82.60
40946;BME280;55635;50.264;11.918;2023-02-19T10:18:03;95812.47;;;10.93;82.52
40946;BME280;55635;50.264;11.918;2023-02-19T10:20:47;95799.22;;;10.79;83.07
40946;BME280;55635;50.264;11.918;2023-02-19T10:23:28;95815.84;;;10.87;84.21
40946;BME280;55635;50.264;11.918;2023-02-19T10:26:09;95800.56;;;11.04;83.66
40946;BME280;55635;50.264;11.918;2023-02-19T10:28:51;95810.19;;;11.05;83.28
40946;BME280;55635;50.264;11.918;2023-02-19T10:31:33;95802.59;;;11.02;84.04
40946;BME280;55635;50.264;11.918;2023-02-19T10:34:20;95807.38;;;11.07;84.32
40946;BME280;55635;50.264;11.918;2023-02-19T10:37:01;95799.31;;;11.00;83.34
40946;BME280;55635;50.264;11.918;2023-02-19T10:39:48;95806.91;;;11.03;83.41
40946;BME280;55635;50.264;11.918;2023-02-19T10:42:30;95816.06;;;11.15;83.87
40946;BME280;55635;50.264;11.918;2023-02-19T10:45:34;95816.06;;;11.66;83.15
40946;BME280;55635;50.264;11.918;2023-02-19T10:48:27;95818.56;;;11.53;81.82
40946;BME280;55635;50.264;11.918;2023-02-19T10:51:11;95822.59;;;11.48;82.17
40946;BME280;55635;50.264;11.918;2023-02-19T10:54:25;95830.34;;;11.79;82.30
40946;BME280;55635;50.264;11.918;2023-02-19T10:57:15;95830.97;;;11.81;81.42
40946;BME280;55635;50.264;11.918;2023-02-19T11:03:16;95827.50;;;11.81;79.57
40946;BME280;55635;50.264;11.918;2023-02-19T11:06:03;95822.72;;;11.40;80.50
40946;BME280;55635;50.264;11.918;2023-02-19T11:09:00;95830.44;;;11.71;80.49
40946;BME280;55635;50.264;11.918;2023-02-19T11:11:41;95842.09;;;11.56;80.64
40946;BME280;55635;50.264;11.918;2023-02-19T11:14:24;95841.47;;;11.24;80.31
40946;BME280;55635;50.264;11.918;2023-02-19T11:17:05;95837.19;;;11.23;80.38
40946;BME280;55635;50.264;11.918;2023-02-19T11:19:46;95846.97;;;11.37;80.01
40946;BME280;55635;50.264;11.918;2023-02-19T11:22:40;95852.78;;;11.62;80.60
40946;BME280;55635;50.264;11.918;2023-02-19T11:25:22;95852.25;;;11.67;78.84
40946;BME280;55635;50.264;11.918;2023-02-19T11:28:21;95853.53;;;11.85;79.55
40946;BME280;55635;50.264;11.918;2023-02-19T11:34:26;95860.84;;;12.19;77.40
40946;BME280;55635;50.264;11.918;2023-02-19T11:37:18;95855.34;;;11.85;77.61
40946;BME280;55635;50.264;11.918;2023-02-19T11:40:00;95861.09;;;12.24;76.47
40946;BME280;55635;50.264;11.918;2023-02-19T11:43:00;95880.06;;;12.21;77.57
40946;BME280;55635;50.264;11.918;2023-02-19T11:52:30;95910.28;;;11.11;77.73
40946;BME280;55635;50.264;11.918;2023-02-19T11:55:47;95909.28;;;10.98;78.15
40946;BME280;55635;50.264;11.918;2023-02-19T12:09:09;95946.84;;;10.64;79.90
40946;BME280;55635;50.264;11.918;2023-02-19T12:34:34;95957.97;;;10.06;81.64
40946;BME280;55635;50.264;11.918;2023-02-19T12:41:08;95976.88;;;9.95;81.44
40946;BME280;55635;50.264;11.918;2023-02-19T12:44:36;95976.09;;;9.86;81.89
40946;BME280;55635;50.264;11.918;2023-02-19T12:47:22;95976.19;;;10.01;81.85
40946;BME280;55635;50.264;11.918;2023-02-19T12:56:11;95986.78;;;10.01;81.66
40946;BME280;55635;50.264;11.918;2023-02-19T12:59:09;95972.00;;;10.06;80.76
40946;BME280;55635;50.264;11.918;2023-02-19T13:05:24;95981.44;;;9.70;81.88
40946;BME280;55635;50.264;11.918;2023-02-19T13:11:19;95989.63;;;9.99;82.29
40946;BME280;55635;50.264;11.918;2023-02-19T13:17:15;95991.41;;;10.46;80.66
40946;BME280;55635;50.264;11.918;2023-02-19T13:20:35;95999.84;;;10.41;80.57
40946;BME280;55635;50.264;11.918;2023-02-19T13:23:27;96006.09;;;10.09;81.24
40946;BME280;55635;50.264;11.918;2023-02-19T13:29:57;96008.22;;;10.30;82.13
40946;BME280;55635;50.264;11.918;2023-02-19T13:36:11;96005.91;;;10.58;82.48
40946;BME280;55635;50.264;11.918;2023-02-19T13:38:54;96010.88;;;10.53;81.31
40946;BME280;55635;50.264;11.918;2023-02-19T13:41:50;96007.94;;;10.70;81.27
40946;BME280;55635;50.264;11.918;2023-02-19T13:44:33;96005.19;;;10.64;80.67
40946;BME280;55635;50.264;11.918;2023-02-19T13:50:35;96020.34;;;10.78;79.97
40946;BME280;55635;50.264;11.918;2023-02-19T13:59:36;96020.38;;;10.47;80.59
40946;BME280;55635;50.264;11.918;2023-02-19T14:05:09;96032.56;;;10.25;82.09
40946;BME280;55635;50.264;11.918;2023-02-19T14:07:53;96021.19;;;10.17;82.19
40946;BME280;55635;50.264;11.918;2023-02-19T14:10:56;96035.19;;;10.33;81.72
40946;BME280;55635;50.264;11.918;2023-02-19T14:28:26;96071.00;;;10.29;81.33
40946;BME280;55635;50.264;11.918;2023-02-19T14:34:20;96078.66;;;10.00;82.41
40946;BME280;55635;50.264;11.918;2023-02-19T14:37:03;96077.19;;;9.98;82.52
40946;BME280;55635;50.264;11.918;2023-02-19T14:39:46;96080.97;;;10.03;80.67
40946;BME280;55635;50.264;11.918;2023-02-19T14:42:28;96070.03;;;10.06;80.75
40946;BME280;55635;50.264;11.918;2023-02-19T14:45:14;96076.19;;;9.99;80.60
40946;BME280;55635;50.264;11.918;2023-02-19T14:47:57;96075.06;;;9.93;79.97
40946;BME280;55635;50.264;11.918;2023-02-19T14:50:41;96066.47;;;9.83;80.39
40946;BME280;55635;50.264;11.918;2023-02-19T14:53:23;96070.97;;;9.74;80.58
40946;BME280;55635;50.264;11.918;2023-02-19T14:56:34;96084.69;;;9.70;81.02
40946;BME280;55635;50.264;11.918;2023-02-19T14:59:28;96083.53;;;9.64;81.27
40946;BME280;55635;50.264;11.918;2023-02-19T15:02:15;96074.16;;;9.38;81.10
40946;BME280;55635;50.264;11.918;2023-02-19T15:05:00;96079.78;;;9.51;80.69
40946;BME280;55635;50.264;11.918;2023-02-19T15:07:41;96082.41;;;9.59;80.94
40946;BME280;55635;50.264;11.918;2023-02-19T15:10:24;96077.13;;;9.51;80.99
40946;BME280;55635;50.264;11.918;2023-02-19T15:13:08;96088.88;;;9.56;80.67
40946;BME280;55635;50.264;11.918;2023-02-19T15:15:56;96084.22;;;9.58;80.25
40946;BME280;55635;50.264;11.918;2023-02-19T15:18:37;96098.78;;;9.62;80.39
40946;BME280;55635;50.264;11.918;2023-02-19T15:24:06;96093.97;;;9.58;80.84
40946;BME280;55635;50.264;11.918;2023-02-19T15:26:50;96094.31;;;9.63;80.33
40946;BME280;55635;50.264;11.918;2023-02-19T15:29:31;96085.25;;;9.41;80.64
40946;BME280;55635;50.264;11.918;2023-02-19T15:32:21;96095.97;;;9.40;81.37
40946;BME280;55635;50.264;11.918;2023-02-19T15:35:04;96102.78;;;9.26;82.50
40946;BME280;55635;50.264;11.918;2023-02-19T15:37:45;96093.00;;;9.35;81.10
40946;BME280;55635;50.264;11.918;2023-02-19T15:40:30;96107.06;;;9.35;81.12
40946;BME280;55635;50.264;11.918;2023-02-19T15:43:42;96115.19;;;9.42;81.13
40946;BME280;55635;50.264;11.918;2023-02-19T15:46:24;96119.63;;;9.33;81.93
40946;BME280;55635;50.264;11.918;2023-02-19T15:49:26;96114.84;;;9.37;81.88
40946;BME280;55635;50.264;11.918;2023-02-19T15:55:44;96119.13;;;9.29;82.04
40946;BME280;55635;50.264;11.918;2023-02-19T15:58:38;96128.38;;;9.34;82.40
40946;BME280;55635;50.264;11.918;2023-02-19T16:01:35;96123.75;;;9.27;82.27
40946;BME280;55635;50.264;11.918;2023-02-19T16:04:17;96129.69;;;9.29;82.14
40946;BME280;55635;50.264;11.918;2023-02-19T16:07:01;96134.19;;;9.29;81.78
40946;BME280;55635;50.264;11.918;2023-02-19T16:09:42;96135.97;;;9.20;82.08
40946;BME280;55635;50.264;11.918;2023-02-19T16:12:23;96133.53;;;9.35;81.97
40946;BME280;55635;50.264;11.918;2023-02-19T16:15:13;96122.94;;;9.35;82.04
40946;BME280;55635;50.264;11.918;2023-02-19T16:17:55;96133.22;;;9.38;81.81
40946;BME280;55635;50.264;11.918;2023-02-19T16:20:36;96131.03;;;9.34;81.38
40946;BME280;55635;50.264;11.918;2023-02-19T16:23:18;96133.34;;;9.37;81.32
40946;BME280;55635;50.264;11.918;2023-02-19T16:26:03;96122.09;;;9.26;81.55
40946;BME280;55635;50.264;11.918;2023-02-19T16:28:50;96138.16;;;9.41;80.79
40946;BME280;55635;50.264;11.918;2023-02-19T16:31:32;96140.78;;;9.33;81.13
40946;BME280;55635;50.264;11.918;2023-02-19T16:34:25;96136.84;;;9.37;81.14
40946;BME280;55635;50.264;11.918;2023-02-19T16:37:56;96158.31;;;9.42;80.78
40946;BME280;55635;50.264;11.918;2023-02-19T16:41:11;96158.31;;;9.42;80.86
40946;BME280;55635;50.264;11.918;2023-02-19T16:43:52;96157.69;;;9.32;81.33
40946;BME280;55635;50.264;11.918;2023-02-19T16:46:33;96152.72;;;9.29;81.03